createdAt,value
2023-01-21T00:00:03.296Z,4.78
2023-01-21T00:02:31.366Z,5.70
2023-01-21T00:04:58.020Z,6.57
2023-01-21T00:07:25.973Z,6.68
2023-01-21T00:09:52.416Z,7.10
2023-01-21T00:12:18.871Z,8.15
2023-01-21T00:14:45.355Z,7.90
2023-01-21T00:17:11.785Z,7.22
2023-01-21T00:19:38.294Z,8.23
2023-01-21T00:22:04.716Z,7.30
2023-01-21T00:24:31.142Z,8.50
2023-01-21T00:26:57.911Z,7.80
2023-01-21T00:29:24.380Z,8.75
2023-01-21T00:31:50.820Z,8.98
2023-01-21T00:34:17.257Z,8.18
2023-01-21T00:36:43.735Z,8.40
2023-01-21T00:39:10.249Z,8.38
2023-01-21T00:41:37.272Z,9.43
2023-01-21T00:44:04.858Z,8.43
2023-01-21T00:46:31.987Z,9.98
2023-01-21T00:49:00.166Z,9.02
2023-01-21T00:51:27.092Z,9.27
2023-01-21T00:53:53.521Z,10.10
2023-01-21T00:56:20.018Z,9.90
2023-01-21T00:58:46.663Z,9.93
2023-01-21T01:01:19.071Z,10.77
2023-01-21T01:03:47.424Z,10.90
2023-01-21T01:06:22.317Z,11.17
2023-01-21T01:08:49.724Z,11.70
2023-01-21T01:11:17.154Z,11.25
2023-01-21T01:13:43.923Z,12.02
2023-01-21T01:16:17.377Z,12.65
2023-01-21T01:18:44.059Z,14.70
2023-01-21T01:21:13.509Z,14.20
2023-01-21T01:23:40.383Z,15.07
2023-01-21T01:26:09.582Z,14.77
2023-01-21T01:31:05.497Z,15.93
2023-01-21T01:33:32.409Z,15.45
2023-01-21T01:36:06.927Z,16.63
2023-01-21T01:38:34.886Z,17.27
2023-01-21T01:41:01.767Z,16.60
2023-01-21T01:43:48.090Z,17.70
2023-01-21T01:46:14.554Z,17.98
2023-01-21T01:48:42.156Z,19.67
2023-01-21T01:51:09.193Z,22.23
2023-01-21T01:53:37.256Z,19.83
2023-01-21T01:56:04.557Z,19.27
2023-01-21T01:58:31.619Z,19.50
2023-01-21T02:00:59.106Z,20.63
2023-01-21T02:03:44.857Z,20.13
2023-01-21T02:06:16.006Z,19.98
2023-01-21T02:08:46.383Z,20.55
2023-01-21T02:11:14.767Z,20.80
2023-01-21T02:13:43.044Z,19.53
2023-01-21T02:16:31.310Z,19.30
2023-01-21T02:19:36.866Z,20.77
2023-01-21T02:22:21.533Z,20.20
2023-01-21T02:25:21.482Z,19.98
2023-01-21T02:28:13.488Z,19.15
2023-01-21T02:30:45.541Z,20.08
2023-01-21T02:33:52.112Z,21.48
2023-01-21T02:36:27.210Z,20.73
2023-01-21T02:39:21.862Z,21.88
2023-01-21T02:41:57.664Z,21.20
2023-01-21T02:44:39.738Z,22.88
2023-01-21T02:47:18.384Z,21.42
2023-01-21T02:49:58.685Z,21.23
2023-01-21T02:52:25.828Z,20.77
2023-01-21T02:54:58.772Z,21.85
2023-01-21T02:57:38.115Z,22.52
2023-01-21T03:00:10.165Z,22.55
2023-01-21T03:02:39.535Z,22.60
2023-01-21T03:05:28.258Z,23.10
2023-01-21T03:08:21.857Z,24.27
2023-01-21T03:11:13.863Z,23.17
2023-01-21T03:14:06.327Z,24.30
2023-01-21T03:16:54.221Z,23.65
2023-01-21T03:19:21.399Z,23.02
2023-01-21T03:21:48.852Z,22.77
2023-01-21T03:24:15.743Z,22.33
2023-01-21T03:26:45.722Z,22.15
2023-01-21T03:29:19.036Z,22.15
2023-01-21T03:31:49.711Z,22.65
2023-01-21T03:34:16.763Z,22.92
2023-01-21T03:36:49.107Z,23.23
2023-01-21T03:39:29.433Z,21.52
2023-01-21T03:41:56.002Z,22.48
2023-01-21T03:44:22.594Z,21.85
2023-01-21T03:47:16.393Z,20.65
2023-01-21T03:50:04.421Z,22.48
2023-01-21T03:52:31.265Z,19.08
2023-01-21T03:54:57.816Z,18.60
2023-01-21T03:57:24.289Z,17.80
2023-01-21T03:59:50.677Z,18.10
2023-01-21T04:02:20.828Z,17.45
2023-01-21T04:04:48.631Z,17.40
2023-01-21T04:07:15.810Z,18.42
2023-01-21T04:09:42.724Z,17.45
2023-01-21T04:12:09.212Z,17.55
2023-01-21T04:14:35.672Z,16.90
2023-01-21T04:17:02.100Z,18.10
2023-01-21T04:19:28.546Z,17.05
2023-01-21T04:21:55.025Z,17.60
2023-01-21T04:24:21.442Z,16.52
2023-01-21T04:26:47.887Z,15.45
2023-01-21T04:29:14.525Z,16.05
2023-01-21T04:31:41.084Z,14.80
2023-01-21T04:34:07.797Z,14.57
2023-01-21T04:36:34.379Z,14.35
2023-01-21T04:39:00.825Z,15.02
2023-01-21T04:41:27.251Z,13.82
2023-01-21T04:43:53.710Z,13.50
2023-01-21T04:46:20.344Z,12.82
2023-01-21T04:48:46.787Z,12.45
2023-01-21T04:51:13.299Z,12.82
2023-01-21T04:53:39.749Z,12.73
2023-01-21T04:56:06.394Z,14.45
2023-01-21T04:58:33.101Z,14.18
2023-01-21T05:00:59.526Z,13.82
2023-01-21T05:03:26.023Z,13.25
2023-01-21T05:05:52.470Z,12.50
2023-01-21T05:08:18.957Z,12.07
2023-01-21T05:10:45.379Z,12.50
2023-01-21T05:13:11.781Z,12.07
2023-01-21T05:15:38.345Z,13.60
2023-01-21T05:18:04.819Z,13.20
2023-01-21T05:20:31.258Z,12.23
2023-01-21T05:22:57.897Z,13.27
2023-01-21T05:25:24.363Z,13.18
2023-01-21T05:27:52.542Z,12.50
2023-01-21T05:30:19.033Z,12.80
2023-01-21T05:32:49.853Z,12.77
2023-01-21T05:35:19.022Z,12.38
2023-01-21T05:40:16.225Z,11.98
2023-01-21T05:45:11.521Z,12.00
2023-01-21T05:47:38.180Z,12.02
2023-01-21T05:50:05.443Z,11.20
2023-01-21T05:52:32.089Z,11.73
2023-01-21T05:55:02.199Z,12.98
2023-01-21T05:57:30.259Z,13.30
2023-01-21T05:59:57.054Z,13.23
2023-01-21T06:02:23.656Z,13.15
2023-01-21T06:04:50.125Z,12.48
2023-01-21T06:07:16.694Z,13.07
2023-01-21T06:09:43.192Z,12.65
2023-01-21T06:12:09.630Z,13.57
2023-01-21T06:14:36.032Z,12.85
2023-01-21T06:17:02.470Z,13.85
2023-01-21T06:19:28.948Z,15.63
2023-01-21T06:21:55.356Z,14.23
2023-01-21T06:24:21.811Z,14.60
2023-01-21T06:26:48.251Z,15.30
2023-01-21T06:29:14.665Z,14.52
2023-01-21T06:31:41.220Z,15.32
2023-01-21T06:34:07.685Z,15.55
2023-01-21T06:36:34.132Z,15.57
2023-01-21T06:39:00.568Z,15.75
2023-01-21T06:41:27.020Z,14.10
2023-01-21T06:43:53.466Z,15.10
2023-01-21T06:46:19.909Z,14.25
2023-01-21T06:48:46.403Z,14.48
2023-01-21T06:51:12.908Z,14.60
2023-01-21T06:53:39.365Z,17.63
2023-01-21T06:56:05.944Z,16.05
2023-01-21T06:58:32.570Z,17.52
2023-01-21T07:00:59.032Z,15.80
2023-01-21T07:03:25.536Z,15.75
2023-01-21T07:05:52.047Z,16.25
2023-01-21T07:08:18.513Z,15.93
2023-01-21T07:10:47.562Z,14.02
2023-01-21T07:15:40.685Z,15.38
2023-01-21T07:18:07.412Z,15.02
2023-01-21T07:20:34.044Z,14.35
2023-01-21T07:23:00.503Z,14.65
2023-01-21T07:25:27.111Z,13.82
2023-01-21T07:27:53.498Z,14.85
2023-01-21T07:30:20.986Z,15.30
2023-01-21T07:32:47.616Z,13.35
2023-01-21T07:35:14.517Z,14.98
2023-01-21T07:37:41.205Z,13.85
2023-01-21T07:40:08.313Z,14.52
2023-01-21T07:42:34.733Z,14.85
2023-01-21T07:45:03.761Z,15.20
2023-01-21T07:47:30.378Z,14.60
2023-01-21T07:49:56.862Z,18.63
2023-01-21T07:52:23.281Z,17.02
2023-01-21T07:54:49.803Z,16.77
2023-01-21T07:57:16.214Z,18.15
2023-01-21T07:59:42.863Z,17.55
2023-01-21T08:02:10.313Z,17.80
2023-01-21T08:04:36.786Z,18.30
2023-01-21T08:07:11.902Z,17.80
2023-01-21T08:09:39.561Z,18.13
2023-01-21T08:12:07.043Z,18.45
2023-01-21T08:14:33.786Z,18.48
2023-01-21T08:17:00.740Z,21.08
2023-01-21T08:19:27.201Z,16.55
2023-01-21T08:21:53.663Z,17.40
2023-01-21T08:24:20.114Z,17.88
2023-01-21T08:26:46.589Z,17.35
2023-01-21T08:29:13.097Z,18.08
2023-01-21T08:31:39.674Z,18.25
2023-01-21T08:34:06.145Z,17.05
2023-01-21T08:36:32.929Z,16.98
2023-01-21T08:39:01.808Z,16.77
2023-01-21T08:41:28.244Z,17.50
2023-01-21T08:43:54.638Z,16.95
2023-01-21T08:46:21.018Z,16.77
2023-01-21T08:48:47.413Z,16.60
2023-01-21T08:51:13.913Z,16.40
2023-01-21T08:53:40.371Z,17.67
2023-01-21T08:56:06.848Z,16.88
2023-01-21T08:58:33.715Z,17.77
2023-01-21T09:01:07.595Z,16.95
2023-01-21T09:03:34.091Z,17.20
2023-01-21T09:06:02.101Z,17.55
2023-01-21T09:08:29.150Z,17.70
2023-01-21T09:11:02.411Z,18.52
2023-01-21T09:13:31.053Z,17.50
2023-01-21T09:15:57.550Z,19.00
2023-01-21T09:18:24.492Z,18.85
2023-01-21T09:20:51.061Z,17.83
2023-01-21T09:23:26.820Z,18.67
2023-01-21T09:26:02.974Z,18.02
2023-01-21T09:28:30.020Z,17.92
2023-01-21T09:30:58.866Z,17.05
2023-01-21T09:33:26.107Z,18.15
2023-01-21T09:35:56.581Z,18.10
2023-01-21T09:38:23.725Z,16.08
2023-01-21T09:40:50.324Z,17.73
2023-01-21T09:43:38.075Z,17.23
2023-01-21T09:46:07.409Z,18.90
2023-01-21T09:48:40.141Z,18.15
2023-01-21T09:51:14.876Z,17.52
2023-01-21T09:53:50.572Z,17.33
2023-01-21T09:56:30.236Z,16.85
2023-01-21T09:59:22.603Z,15.65
2023-01-21T10:01:50.025Z,15.93
2023-01-21T10:04:40.151Z,16.67
2023-01-21T10:07:27.625Z,16.42
2023-01-21T10:10:02.959Z,17.35
2023-01-21T10:12:54.523Z,17.05
2023-01-21T10:15:29.914Z,18.17
2023-01-21T10:18:00.653Z,16.35
2023-01-21T10:20:42.200Z,18.83
2023-01-21T10:23:15.976Z,21.08
2023-01-21T10:25:43.533Z,20.05
2023-01-21T10:28:21.373Z,18.50
2023-01-21T10:30:55.501Z,19.83
2023-01-21T10:33:25.124Z,25.25
2023-01-21T10:35:51.432Z,19.00
2023-01-21T10:38:27.435Z,18.92
2023-01-21T10:41:23.959Z,18.40
2023-01-21T10:44:05.686Z,16.75
2023-01-21T10:46:42.825Z,17.65
2023-01-21T10:49:55.747Z,18.65
2023-01-21T10:52:50.705Z,18.42
2023-01-21T10:55:24.389Z,19.17
2023-01-21T10:58:18.327Z,18.52
2023-01-21T11:00:47.351Z,17.35
2023-01-21T11:03:16.434Z,19.63
2023-01-21T11:05:43.297Z,17.50
2023-01-21T11:08:17.244Z,17.15
2023-01-21T11:10:44.346Z,16.60
2023-01-21T11:13:13.568Z,17.08
2023-01-21T11:18:31.106Z,16.17
2023-01-21T11:21:00.255Z,14.95
2023-01-21T11:23:39.064Z,15.88
2023-01-21T11:26:18.669Z,15.18
2023-01-21T11:28:45.847Z,32.38
2023-01-21T11:31:22.130Z,15.18
2023-01-21T11:33:48.633Z,15.75
2023-01-21T11:36:17.358Z,14.00
2023-01-21T11:38:46.581Z,14.48
2023-01-21T11:43:48.248Z,14.98
2023-01-21T11:46:37.211Z,14.90
2023-01-21T11:49:06.547Z,14.57
2023-01-21T11:51:37.457Z,16.20
2023-01-21T11:54:08.208Z,15.45
2023-01-21T11:56:35.703Z,15.73
2023-01-21T11:59:03.791Z,16.80
2023-01-21T12:01:30.230Z,16.30
2023-01-21T12:04:00.558Z,16.08
2023-01-21T12:06:30.501Z,16.30
2023-01-21T12:09:01.544Z,13.20
2023-01-21T12:11:29.789Z,14.77
2023-01-21T12:14:21.735Z,16.70
2023-01-21T12:17:16.037Z,14.82
2023-01-21T12:20:01.196Z,16.40
2023-01-21T12:22:59.677Z,15.10
2023-01-21T12:25:41.450Z,14.65
2023-01-21T12:28:37.187Z,15.07
2023-01-21T12:31:32.534Z,15.57
2023-01-21T12:34:27.367Z,15.18
2023-01-21T12:37:09.837Z,13.88
2023-01-21T12:39:37.548Z,12.85
2023-01-21T12:42:29.079Z,13.90
2023-01-21T12:45:01.947Z,14.50
2023-01-21T12:47:54.074Z,11.80
2023-01-21T12:50:39.407Z,13.13
2023-01-21T12:53:16.111Z,13.73
2023-01-21T12:56:09.156Z,14.93
2023-01-21T12:58:42.927Z,14.52
2023-01-21T13:01:13.401Z,15.27
2023-01-21T13:03:55.871Z,16.35
2023-01-21T13:06:42.519Z,18.10
2023-01-21T13:09:34.795Z,14.07
2023-01-21T13:12:11.629Z,14.68
2023-01-21T13:14:41.316Z,15.90
2023-01-21T13:17:22.765Z,15.27
2023-01-21T13:19:49.397Z,14.90
2023-01-21T13:22:44.500Z,14.50
2023-01-21T13:25:29.528Z,13.68
2023-01-21T13:28:16.329Z,14.98
2023-01-21T13:30:47.522Z,13.35
2023-01-21T13:33:55.871Z,15.50
2023-01-21T13:36:40.846Z,14.90
2023-01-21T13:39:12.950Z,15.02
2023-01-21T13:42:08.199Z,13.32
2023-01-21T13:45:10.475Z,17.77
2023-01-21T13:48:01.423Z,16.20
2023-01-21T13:50:30.007Z,14.60
2023-01-21T13:53:03.634Z,14.10
2023-01-21T13:55:55.291Z,13.88
2023-01-21T13:58:36.588Z,12.68
2023-01-21T14:01:12.627Z,11.20
2023-01-21T14:03:57.544Z,15.35
2023-01-21T14:06:32.021Z,12.10
2023-01-21T14:09:00.636Z,13.02
2023-01-21T14:11:29.315Z,11.73
2023-01-21T14:14:34.985Z,12.40
2023-01-21T14:17:26.467Z,12.63
2023-01-21T14:20:09.917Z,12.48
2023-01-21T14:22:58.145Z,10.63
2023-01-21T14:25:42.967Z,10.40
2023-01-21T14:28:22.552Z,12.05
2023-01-21T14:31:15.145Z,11.45
2023-01-21T14:33:57.645Z,10.75
2023-01-21T14:36:49.104Z,11.25
2023-01-21T14:39:31.657Z,10.70
2023-01-21T14:42:10.626Z,10.45
2023-01-21T14:44:50.699Z,11.52
2023-01-21T14:47:28.907Z,10.60
2023-01-21T14:49:57.967Z,10.68
2023-01-21T14:52:30.231Z,11.73
2023-01-21T14:54:56.949Z,9.32
2023-01-21T14:57:29.896Z,10.15
2023-01-21T15:00:25.213Z,9.38
2023-01-21T15:03:09.515Z,9.73
2023-01-21T15:05:36.854Z,9.40
2023-01-21T15:08:21.663Z,9.55
2023-01-21T15:11:08.020Z,8.23
2023-01-21T15:13:34.516Z,11.10
2023-01-21T15:16:31.368Z,11.65
2023-01-21T15:19:19.891Z,10.82
2023-01-21T15:22:14.842Z,16.40
2023-01-21T15:24:47.379Z,14.05
2023-01-21T15:27:25.742Z,18.50
2023-01-21T15:29:55.225Z,18.08
2023-01-21T15:32:47.921Z,15.35
2023-01-21T15:35:34.513Z,13.18
2023-01-21T15:38:21.194Z,13.30
2023-01-21T15:40:53.584Z,12.70
2023-01-21T15:43:43.159Z,9.98
2023-01-21T15:46:31.643Z,10.43
2023-01-21T15:49:25.028Z,10.38
2023-01-21T15:52:03.596Z,10.48
2023-01-21T15:54:38.215Z,11.20
2023-01-21T15:57:36.692Z,11.27
2023-01-21T16:00:17.537Z,11.55
2023-01-21T16:02:54.221Z,11.80
2023-01-21T16:05:45.741Z,11.48
2023-01-21T16:08:21.374Z,12.13
2023-01-21T16:11:14.032Z,11.50
2023-01-21T16:14:10.960Z,12.40
2023-01-21T16:16:53.729Z,9.00
2023-01-21T16:19:23.961Z,8.63
2023-01-21T16:21:54.250Z,8.23
2023-01-21T16:24:24.063Z,9.00
2023-01-21T16:26:50.542Z,9.23
2023-01-21T16:29:16.966Z,9.20
2023-01-21T16:31:50.424Z,9.10
2023-01-21T16:34:42.356Z,9.68
2023-01-21T16:37:20.147Z,9.55
2023-01-21T16:39:46.931Z,8.60
2023-01-21T16:42:30.929Z,9.88
2023-01-21T16:44:58.130Z,10.43
2023-01-21T16:47:33.678Z,9.85
2023-01-21T16:50:01.076Z,9.40
2023-01-21T16:52:28.246Z,9.10
2023-01-21T16:54:55.629Z,8.77
2023-01-21T16:57:48.283Z,10.25
2023-01-21T17:00:29.645Z,9.25
2023-01-21T17:02:57.151Z,9.23
2023-01-21T17:05:28.648Z,9.10
2023-01-21T17:07:57.773Z,8.85
2023-01-21T17:10:33.629Z,8.35
2023-01-21T17:13:02.152Z,8.75
2023-01-21T17:15:38.534Z,9.00
2023-01-21T17:18:08.834Z,8.75
2023-01-21T17:20:42.429Z,8.80
2023-01-21T17:23:21.534Z,9.02
2023-01-21T17:26:04.151Z,9.75
2023-01-21T17:28:38.018Z,8.52
2023-01-21T17:31:09.362Z,10.02
2023-01-21T17:33:36.335Z,10.13
2023-01-21T17:36:08.485Z,7.90
2023-01-21T17:38:42.983Z,8.23
2023-01-21T17:41:14.120Z,9.23
2023-01-21T17:43:47.593Z,8.82
2023-01-21T17:46:14.788Z,8.88
2023-01-21T17:48:45.390Z,8.57
2023-01-21T17:51:14.828Z,9.02
2023-01-21T17:53:46.322Z,9.30
2023-01-21T17:56:12.943Z,7.60
2023-01-21T17:58:51.144Z,8.25
2023-01-21T18:01:19.776Z,10.10
2023-01-21T18:03:46.627Z,9.75
2023-01-21T18:06:17.528Z,8.93
2023-01-21T18:08:43.954Z,9.73
2023-01-21T18:11:14.821Z,18.50
2023-01-21T18:13:41.278Z,11.05
2023-01-21T18:16:08.106Z,11.82
2023-01-21T18:18:35.943Z,11.15
2023-01-21T18:21:02.440Z,10.90
2023-01-21T18:23:29.752Z,10.00
2023-01-21T18:25:56.293Z,11.10
2023-01-21T18:28:24.700Z,14.55
2023-01-21T18:30:52.912Z,17.45
2023-01-21T18:33:19.796Z,33.47
2023-01-21T18:35:47.916Z,22.17
2023-01-21T18:38:19.035Z,11.60
2023-01-21T18:40:45.858Z,10.25
2023-01-21T18:43:12.335Z,10.00
2023-01-21T18:45:39.452Z,9.50
2023-01-21T18:48:14.653Z,9.10
2023-01-21T18:50:41.158Z,8.95
2023-01-21T18:53:09.051Z,9.38
2023-01-21T18:55:35.702Z,10.50
2023-01-21T18:58:04.116Z,9.75
2023-01-21T19:00:32.480Z,10.10
2023-01-21T19:03:01.068Z,9.43
2023-01-21T19:05:30.501Z,9.50
2023-01-21T19:07:57.322Z,9.57
2023-01-21T19:10:23.755Z,8.93
2023-01-21T19:12:50.430Z,8.73
2023-01-21T19:15:21.761Z,8.60
2023-01-21T19:17:51.341Z,9.48
2023-01-21T19:22:44.881Z,9.10
2023-01-21T19:25:11.525Z,8.75
2023-01-21T19:27:40.856Z,9.20
2023-01-21T19:32:41.782Z,9.80
2023-01-21T19:35:08.833Z,9.52
2023-01-21T19:37:36.152Z,9.48
2023-01-21T19:40:02.631Z,8.68
2023-01-21T19:42:29.095Z,9.30
2023-01-21T19:44:55.566Z,9.60
2023-01-21T19:47:28.269Z,9.60
2023-01-21T19:49:54.719Z,10.25
2023-01-21T19:52:21.146Z,9.02
2023-01-21T19:54:47.669Z,9.20
2023-01-21T19:57:17.492Z,10.38
2023-01-21T19:59:44.802Z,9.88
2023-01-21T20:02:11.769Z,11.85
2023-01-21T20:04:38.230Z,12.10
2023-01-21T20:07:05.149Z,12.35
2023-01-21T20:09:32.129Z,13.15
2023-01-21T20:11:58.619Z,12.57
2023-01-21T20:14:25.221Z,16.30
2023-01-21T20:16:53.872Z,14.23
2023-01-21T20:19:20.804Z,14.77
2023-01-21T20:21:59.971Z,14.02
2023-01-21T20:24:30.021Z,13.35
2023-01-21T20:26:56.498Z,12.73
2023-01-21T20:29:22.990Z,15.30
2023-01-21T20:31:51.786Z,11.98
2023-01-21T20:34:18.336Z,11.23
2023-01-21T20:36:48.259Z,11.90
2023-01-21T20:39:15.057Z,13.02
2023-01-21T20:41:43.268Z,13.00
2023-01-21T20:44:09.737Z,13.77
2023-01-21T20:46:36.151Z,12.30
2023-01-21T20:49:05.526Z,14.23
2023-01-21T20:51:31.950Z,13.80
2023-01-21T20:53:58.349Z,13.02
2023-01-21T20:56:30.010Z,13.55
2023-01-21T20:58:56.554Z,13.95
2023-01-21T21:01:24.724Z,14.35
2023-01-21T21:03:51.628Z,15.18
2023-01-21T21:06:25.763Z,14.75
2023-01-21T21:08:52.453Z,16.13
2023-01-21T21:11:19.439Z,16.38
2023-01-21T21:13:48.228Z,14.88
2023-01-21T21:16:24.379Z,15.65
2023-01-21T21:18:51.251Z,15.18
2023-01-21T21:21:18.391Z,15.40
2023-01-21T21:23:46.559Z,15.30
2023-01-21T21:26:18.348Z,16.60
2023-01-21T21:28:46.601Z,14.75
2023-01-21T21:31:14.489Z,15.25
2023-01-21T21:33:41.447Z,16.45
2023-01-21T21:36:15.138Z,14.63
2023-01-21T21:38:41.879Z,15.50
2023-01-21T21:41:32.296Z,13.50
2023-01-21T21:43:58.810Z,14.68
2023-01-21T21:46:43.692Z,14.30
2023-01-21T21:49:10.717Z,14.57
2023-01-21T21:51:37.965Z,15.07
2023-01-21T21:54:07.646Z,15.85
2023-01-21T21:56:35.734Z,15.70
2023-01-21T21:59:02.589Z,15.20
2023-01-21T22:01:30.990Z,15.60
2023-01-21T22:04:01.311Z,14.97
2023-01-21T22:06:28.154Z,15.05
2023-01-21T22:08:55.323Z,15.40
2023-01-21T22:11:22.488Z,16.33
2023-01-21T22:13:50.594Z,15.27
2023-01-21T22:16:19.739Z,14.55
2023-01-21T22:18:46.383Z,14.68
2023-01-21T22:21:15.047Z,15.43
2023-01-21T22:23:41.899Z,15.27
2023-01-21T22:26:10.107Z,17.17
2023-01-21T22:28:36.981Z,19.85
2023-01-21T22:31:05.074Z,19.67
2023-01-21T22:33:32.441Z,20.88
2023-01-21T22:35:58.881Z,18.02
2023-01-21T22:38:25.345Z,18.55
2023-01-21T22:40:53.225Z,18.08
2023-01-21T22:43:21.021Z,17.92
2023-01-21T22:45:48.365Z,17.98
2023-01-21T22:48:15.154Z,17.27
2023-01-21T22:50:44.292Z,19.75
2023-01-21T22:53:13.798Z,17.88
2023-01-21T22:55:40.266Z,17.88
2023-01-21T22:58:06.666Z,18.92
2023-01-21T23:00:38.927Z,17.52
2023-01-21T23:03:06.743Z,18.98
2023-01-21T23:05:33.880Z,19.02
2023-01-21T23:10:32.399Z,18.30
2023-01-21T23:12:58.823Z,19.67
2023-01-21T23:15:25.458Z,19.45
2023-01-21T23:17:54.886Z,19.45
2023-01-21T23:20:21.367Z,18.10
2023-01-21T23:22:47.884Z,20.20
2023-01-21T23:25:14.706Z,19.88
2023-01-21T23:27:41.153Z,22.13
2023-01-21T23:30:08.302Z,18.60
2023-01-21T23:32:34.710Z,18.77
2023-01-21T23:35:01.179Z,16.10
2023-01-21T23:37:27.596Z,16.98
2023-01-21T23:39:54.015Z,16.50
2023-01-21T23:42:22.334Z,20.85
2023-01-21T23:44:48.798Z,17.43
2023-01-21T23:47:15.195Z,20.48
2023-01-21T23:49:41.675Z,21.27
2023-01-21T23:52:12.432Z,19.63
2023-01-21T23:54:39.809Z,29.02
2023-01-21T23:57:06.745Z,31.50
2023-01-21T23:59:33.713Z,27.77
